createdAt,value
2018-07-03T00:01:47.012Z,37.68
2018-07-03T00:04:16.732Z,37.17
2018-07-03T00:06:47.091Z,38.35
2018-07-03T00:09:17.372Z,37.03
2018-07-03T00:11:46.644Z,37.79
2018-07-03T00:14:16.382Z,38.26
2018-07-03T00:16:51.285Z,37.86
2018-07-03T00:19:21.430Z,37.91
2018-07-03T00:21:51.358Z,38.44
2018-07-03T00:24:20.595Z,38.65
2018-07-03T00:26:50.502Z,38.74
2018-07-03T00:29:20.550Z,39.26
2018-07-03T00:31:50.735Z,38.89
2018-07-03T00:34:20.226Z,39.05
2018-07-03T00:36:50.440Z,38.87
2018-07-03T00:39:21.479Z,39.18
2018-07-03T00:41:51.311Z,39.76
2018-07-03T00:44:21.339Z,39.61
2018-07-03T00:46:51.684Z,39.80
2018-07-03T00:49:22.302Z,39.54
2018-07-03T00:51:51.926Z,39.76
2018-07-03T00:54:22.297Z,39.98
2018-07-03T00:56:52.114Z,40.58
2018-07-03T00:59:22.663Z,41.20
2018-07-03T01:01:52.436Z,40.53
2018-07-03T01:04:22.071Z,40.94
2018-07-03T01:06:52.574Z,40.94
2018-07-03T01:09:22.948Z,41.37
2018-07-03T01:11:53.242Z,40.97
2018-07-03T01:14:22.690Z,41.59
2018-07-03T01:16:52.747Z,41.37
2018-07-03T01:19:23.469Z,41.84
2018-07-03T01:21:52.770Z,42.24
2018-07-03T01:24:22.426Z,42.15
2018-07-03T01:26:52.151Z,42.49
2018-07-03T01:29:22.065Z,43.07
2018-07-03T01:31:52.351Z,43.85
2018-07-03T01:34:21.861Z,43.96
2018-07-03T01:36:51.586Z,44.35
2018-07-03T01:39:22.326Z,44.61
2018-07-03T01:41:52.530Z,45.10
2018-07-03T01:44:23.321Z,45.55
2018-07-03T01:46:53.578Z,45.93
2018-07-03T01:49:22.791Z,46.44
2018-07-03T01:51:53.411Z,46.92
2018-07-03T01:54:22.796Z,47.33
2018-07-03T01:56:52.555Z,47.80
2018-07-03T01:59:23.154Z,48.28
2018-07-03T02:01:53.482Z,48.43
2018-07-03T02:04:23.076Z,48.74
2018-07-03T02:06:53.106Z,49.85
2018-07-03T02:09:22.879Z,50.32
2018-07-03T02:11:52.383Z,49.67
2018-07-03T02:14:22.090Z,50.33
2018-07-03T02:16:52.379Z,50.66
2018-07-03T02:19:22.833Z,50.80
2018-07-03T02:21:53.188Z,50.72
2018-07-03T02:24:23.426Z,50.97
2018-07-03T02:26:52.740Z,50.85
2018-07-03T02:29:22.365Z,51.79
2018-07-03T02:31:52.832Z,51.99
2018-07-03T02:34:23.482Z,51.97
2018-07-03T02:36:53.426Z,52.55
2018-07-03T02:39:22.854Z,52.32
2018-07-03T02:41:52.632Z,52.86
2018-07-03T02:44:23.377Z,52.53
2018-07-03T02:46:52.825Z,52.95
2018-07-03T02:49:23.248Z,52.98
2018-07-03T02:51:52.629Z,53.09
2018-07-03T02:54:22.227Z,53.47
2018-07-03T02:56:52.074Z,53.19
2018-07-03T02:59:21.665Z,53.38
2018-07-03T03:01:52.057Z,53.38
2018-07-03T03:04:22.170Z,53.42
2018-07-03T03:06:51.936Z,53.40
2018-07-03T03:09:21.786Z,53.68
2018-07-03T03:11:51.765Z,53.73
2018-07-03T03:14:21.400Z,53.69
2018-07-03T03:16:55.092Z,54.20
2018-07-03T03:19:26.567Z,54.54
2018-07-03T03:21:56.352Z,54.18
2018-07-03T03:24:25.824Z,54.63
2018-07-03T03:26:55.409Z,54.93
2018-07-03T03:29:24.629Z,54.17
2018-07-03T03:31:54.257Z,54.81
2018-07-03T03:34:23.527Z,55.13
2018-07-03T03:36:53.649Z,55.19
2018-07-03T03:39:23.218Z,55.13
2018-07-03T03:41:53.143Z,55.08
2018-07-03T03:44:23.092Z,55.35
2018-07-03T03:46:52.302Z,55.28
2018-07-03T03:49:22.196Z,54.85
2018-07-03T03:51:51.509Z,55.56
2018-07-03T03:54:24.354Z,55.39
2018-07-03T03:56:54.382Z,55.76
2018-07-03T03:59:24.184Z,56.35
2018-07-03T04:01:54.171Z,55.97
2018-07-03T04:04:24.584Z,56.14
2018-07-03T04:06:54.018Z,56.05
2018-07-03T04:09:23.816Z,56.33
2018-07-03T04:11:53.796Z,56.47
2018-07-03T04:14:23.471Z,56.19
2018-07-03T04:16:56.965Z,56.50
2018-07-03T04:19:27.128Z,56.47
2018-07-03T04:21:56.729Z,56.82
2018-07-03T04:24:26.057Z,55.99
2018-07-03T04:26:58.956Z,55.74
2018-07-03T04:29:28.744Z,55.95
2018-07-03T04:31:58.506Z,56.14
2018-07-03T04:34:28.243Z,56.66
2018-07-03T04:36:58.257Z,56.03
2018-07-03T04:39:27.664Z,55.99
2018-07-03T04:41:57.467Z,55.88
2018-07-03T04:44:27.136Z,55.10
2018-07-03T04:46:57.091Z,55.93
2018-07-03T04:49:27.506Z,55.13
2018-07-03T04:51:58.445Z,55.15
2018-07-03T04:54:28.145Z,54.98
2018-07-03T04:56:57.769Z,54.58
2018-07-03T04:59:27.963Z,54.32
2018-07-03T05:01:57.498Z,53.79
2018-07-03T05:04:26.824Z,54.40
2018-07-03T05:06:56.284Z,54.64
2018-07-03T05:09:25.762Z,53.91
2018-07-03T05:11:55.419Z,54.08
2018-07-03T05:14:26.122Z,54.12
2018-07-03T05:16:57.482Z,53.71
2018-07-03T05:19:28.256Z,54.08
2018-07-03T05:21:58.973Z,54.08
2018-07-03T05:24:28.382Z,54.38
2018-07-03T05:26:58.301Z,53.33
2018-07-03T05:29:27.708Z,53.32
2018-07-03T05:31:57.814Z,53.68
2018-07-03T05:34:27.601Z,53.12
2018-07-03T05:36:57.556Z,53.28
2018-07-03T05:39:27.470Z,52.75
2018-07-03T05:41:56.966Z,52.95
2018-07-03T05:44:26.562Z,52.73
2018-07-03T05:46:56.763Z,52.25
2018-07-03T05:49:26.587Z,52.36
2018-07-03T05:51:56.260Z,52.07
2018-07-03T05:54:26.634Z,52.16
2018-07-03T05:56:56.432Z,51.91
2018-07-03T05:59:26.209Z,52.41
2018-07-03T06:01:56.277Z,52.06
2018-07-03T06:04:25.742Z,51.82
2018-07-03T06:06:55.356Z,51.89
2018-07-03T06:09:25.393Z,50.15
2018-07-03T06:11:54.642Z,50.63
2018-07-03T06:14:24.414Z,50.95
2018-07-03T06:16:56.796Z,50.04
2018-07-03T06:19:27.479Z,50.33
2018-07-03T06:21:57.951Z,50.31
2018-07-03T06:24:27.764Z,50.29
2018-07-03T06:26:57.219Z,50.35
2018-07-03T06:29:27.191Z,50.50
2018-07-03T06:31:56.739Z,50.52
2018-07-03T06:34:26.484Z,49.92
2018-07-03T06:36:56.279Z,49.63
2018-07-03T06:39:25.944Z,48.99
2018-07-03T06:41:56.010Z,47.60
2018-07-03T06:44:25.912Z,47.60
2018-07-03T06:46:55.762Z,47.80
2018-07-03T06:49:26.547Z,48.24
2018-07-03T06:51:56.792Z,47.75
2018-07-03T06:54:26.732Z,47.40
2018-07-03T06:56:56.086Z,46.49
2018-07-03T06:59:25.695Z,46.62
2018-07-03T07:01:55.697Z,45.61
2018-07-03T07:04:26.342Z,44.91
2018-07-03T07:06:55.931Z,44.43
2018-07-03T07:09:25.780Z,43.53
2018-07-03T07:11:55.892Z,41.99
2018-07-03T07:14:25.675Z,41.84
2018-07-03T07:16:55.006Z,41.67
2018-07-03T07:19:24.410Z,40.66
2018-07-03T07:21:54.556Z,40.29
2018-07-03T07:24:24.082Z,39.21
2018-07-03T07:26:53.812Z,36.87
2018-07-03T07:29:23.038Z,35.76
2018-07-03T07:31:52.911Z,36.13
2018-07-03T07:34:22.579Z,36.75
2018-07-03T07:36:52.356Z,35.45
2018-07-03T07:39:22.144Z,35.65
2018-07-03T07:41:52.861Z,36.36
2018-07-03T07:44:24.266Z,36.06
2018-07-03T07:46:54.187Z,36.18
2018-07-03T07:49:23.897Z,35.71
2018-07-03T07:51:53.468Z,34.76
2018-07-03T07:54:23.009Z,34.70
2018-07-03T07:56:52.934Z,34.95
2018-07-03T07:59:22.837Z,35.32
2018-07-03T08:01:52.649Z,35.54
2018-07-03T08:04:22.510Z,35.87
2018-07-03T08:06:52.268Z,35.56
2018-07-03T08:09:23.050Z,35.94
2018-07-03T08:11:52.474Z,35.33
2018-07-03T08:14:22.718Z,35.00
2018-07-03T08:16:53.087Z,35.57
2018-07-03T08:19:23.358Z,36.37
2018-07-03T08:21:52.948Z,34.40
2018-07-03T08:24:22.535Z,34.37
2018-07-03T08:26:52.354Z,34.47
2018-07-03T08:29:22.531Z,34.37
2018-07-03T08:31:52.690Z,34.68
2018-07-03T08:34:22.162Z,33.71
2018-07-03T08:36:52.099Z,34.18
2018-07-03T08:39:22.328Z,33.61
2018-07-03T08:41:52.754Z,33.18
2018-07-03T08:44:23.076Z,32.28
2018-07-03T08:46:53.201Z,32.19
2018-07-03T08:49:23.247Z,32.34
2018-07-03T08:51:52.795Z,32.49
2018-07-03T08:54:22.468Z,33.01
2018-07-03T08:56:52.296Z,32.82
2018-07-03T08:59:22.160Z,32.00
2018-07-03T09:01:51.507Z,31.83
2018-07-03T09:04:20.765Z,31.29
2018-07-03T09:06:50.352Z,30.38
2018-07-03T09:09:20.407Z,30.81
2018-07-03T09:11:50.678Z,31.01
2018-07-03T09:14:20.036Z,31.08
2018-07-03T09:16:50.129Z,31.39
2018-07-03T09:19:19.932Z,32.11
2018-07-03T09:21:49.737Z,31.51
2018-07-03T09:24:19.922Z,30.83
2018-07-03T09:26:49.145Z,29.48
2018-07-03T09:29:18.651Z,30.46
2018-07-03T09:31:48.888Z,30.76
2018-07-03T09:34:18.989Z,30.66
2018-07-03T09:36:48.946Z,29.57
2018-07-03T09:39:18.600Z,29.99
2018-07-03T09:41:48.507Z,29.90
2018-07-03T09:44:18.227Z,29.35
2018-07-03T09:46:48.049Z,29.26
2018-07-03T09:49:17.891Z,29.05
2018-07-03T09:51:47.579Z,29.75
2018-07-03T09:54:17.555Z,29.75
2018-07-03T09:56:47.772Z,29.72
2018-07-03T09:59:17.717Z,29.85
2018-07-03T10:01:47.806Z,30.60
2018-07-03T10:04:17.636Z,30.14
2018-07-03T10:06:47.313Z,30.22
2018-07-03T10:09:16.682Z,29.86
2018-07-03T10:11:46.969Z,30.03
2018-07-03T10:14:16.868Z,30.35
2018-07-03T10:16:46.310Z,29.97
2018-07-03T10:19:16.176Z,30.24
2018-07-03T10:21:46.580Z,30.25
2018-07-03T10:24:16.848Z,29.79
2018-07-03T10:26:46.835Z,29.58
2018-07-03T10:29:16.278Z,29.08
2018-07-03T10:31:46.028Z,29.28
2018-07-03T10:34:15.729Z,29.78
2018-07-03T10:36:45.551Z,30.08
2018-07-03T10:39:15.197Z,30.12
2018-07-03T10:41:45.456Z,29.48
2018-07-03T10:44:15.178Z,28.77
2018-07-03T10:46:44.815Z,28.64
2018-07-03T10:49:14.420Z,29.36
2018-07-03T10:51:43.964Z,29.62
2018-07-03T10:54:13.992Z,30.15
2018-07-03T10:56:44.479Z,30.23
2018-07-03T10:59:14.210Z,29.81
2018-07-03T11:01:43.814Z,29.64
2018-07-03T11:04:13.416Z,29.50
2018-07-03T11:06:43.548Z,29.21
2018-07-03T11:09:13.817Z,29.30
2018-07-03T11:11:43.565Z,28.85
2018-07-03T11:14:13.318Z,28.73
2018-07-03T11:16:42.665Z,28.52
2018-07-03T11:19:12.577Z,28.81
2018-07-03T11:21:42.677Z,28.44
2018-07-03T11:24:12.484Z,27.37
2018-07-03T11:26:42.196Z,27.99
2018-07-03T11:29:11.712Z,28.02
2018-07-03T11:31:42.072Z,27.64
2018-07-03T11:34:11.849Z,28.01
2018-07-03T11:36:41.791Z,27.33
2018-07-03T11:39:11.299Z,27.43
2018-07-03T11:41:41.007Z,27.57
2018-07-03T11:44:10.625Z,27.61
2018-07-03T11:46:40.487Z,27.50
2018-07-03T11:49:10.140Z,27.65
2018-07-03T11:51:39.986Z,27.54
2018-07-03T11:54:09.555Z,27.17
2018-07-03T11:56:39.274Z,27.59
2018-07-03T11:59:08.655Z,27.45
2018-07-03T12:01:38.582Z,26.77
2018-07-03T12:04:08.478Z,26.88
2018-07-03T12:06:37.755Z,26.66
2018-07-03T12:09:09.448Z,26.98
2018-07-03T12:11:39.266Z,26.87
2018-07-03T12:14:09.698Z,26.91
2018-07-03T12:16:44.548Z,25.78
2018-07-03T12:19:14.545Z,25.84
2018-07-03T12:21:44.061Z,26.32
2018-07-03T12:24:13.895Z,26.65
2018-07-03T12:26:43.419Z,26.33
2018-07-03T12:29:12.885Z,26.06
2018-07-03T12:31:43.079Z,25.75
2018-07-03T12:34:12.642Z,25.52
2018-07-03T12:36:42.478Z,25.80
2018-07-03T12:39:12.567Z,26.24
2018-07-03T12:41:42.018Z,26.16
2018-07-03T12:44:11.445Z,24.86
2018-07-03T12:46:41.190Z,24.75
2018-07-03T12:49:10.473Z,24.89
2018-07-03T12:51:42.408Z,24.85
2018-07-03T12:54:12.738Z,25.60
2018-07-03T12:56:43.300Z,25.26
2018-07-03T12:59:12.696Z,24.68
2018-07-03T13:01:42.372Z,24.55
2018-07-03T13:04:12.125Z,24.69
2018-07-03T13:06:41.902Z,24.29
2018-07-03T13:09:12.755Z,25.32
2018-07-03T13:11:42.655Z,24.45
2018-07-03T13:14:12.833Z,23.26
2018-07-03T13:16:42.967Z,23.62
2018-07-03T13:19:13.185Z,23.30
2018-07-03T13:21:42.651Z,23.80
2018-07-03T13:24:12.500Z,24.34
2018-07-03T13:26:43.430Z,24.28
2018-07-03T13:29:13.723Z,24.00
2018-07-03T13:31:44.638Z,23.78
2018-07-03T13:34:14.189Z,24.40
2018-07-03T13:36:45.094Z,24.65
2018-07-03T13:39:14.726Z,24.30
2018-07-03T13:41:44.297Z,23.85
2018-07-03T13:44:14.198Z,23.82
2018-07-03T13:46:43.814Z,23.88
2018-07-03T13:49:13.153Z,23.78
2018-07-03T13:51:43.183Z,23.85
2018-07-03T13:54:12.980Z,24.61
2018-07-03T13:56:42.552Z,23.76
2018-07-03T13:59:12.784Z,23.83
2018-07-03T14:01:42.738Z,23.42
2018-07-03T14:04:12.540Z,23.39
2018-07-03T14:06:42.132Z,23.76
2018-07-03T14:09:11.989Z,23.55
2018-07-03T14:11:41.377Z,23.78
2018-07-03T14:14:11.445Z,23.30
2018-07-03T14:16:41.197Z,23.24
2018-07-03T14:19:10.499Z,23.67
2018-07-03T14:21:40.161Z,23.38
2018-07-03T14:24:09.850Z,22.77
2018-07-03T14:26:39.444Z,22.80
2018-07-03T14:29:09.076Z,22.23
2018-07-03T14:31:40.571Z,22.75
2018-07-03T14:34:10.265Z,22.28
2018-07-03T14:36:40.732Z,22.62
2018-07-03T14:39:12.706Z,22.90
2018-07-03T14:41:43.323Z,22.42
2018-07-03T14:44:13.507Z,22.00
2018-07-03T14:46:43.089Z,22.67
2018-07-03T14:49:12.504Z,22.50
2018-07-03T14:51:42.942Z,22.69
2018-07-03T14:54:12.136Z,22.34
2018-07-03T14:56:41.964Z,22.05
2018-07-03T14:59:11.777Z,22.25
2018-07-03T15:01:41.751Z,22.03
2018-07-03T15:04:11.899Z,22.08
2018-07-03T15:06:42.440Z,22.06
2018-07-03T15:09:14.675Z,22.38
2018-07-03T15:11:44.384Z,21.93
2018-07-03T15:14:14.221Z,22.02
2018-07-03T15:16:44.133Z,22.28
2018-07-03T15:19:19.198Z,22.36
2018-07-03T15:21:49.863Z,22.88
2018-07-03T15:24:19.812Z,22.67
2018-07-03T15:26:49.623Z,22.15
2018-07-03T15:29:20.025Z,22.07
2018-07-03T15:31:49.720Z,22.33
2018-07-03T15:34:19.872Z,22.58
2018-07-03T15:36:49.652Z,22.48
2018-07-03T15:39:21.187Z,22.47
2018-07-03T15:41:51.189Z,22.65
2018-07-03T15:44:33.646Z,22.50
2018-07-03T15:47:02.923Z,22.67
2018-07-03T15:49:32.353Z,22.63
2018-07-03T15:52:02.433Z,22.82
2018-07-03T15:54:32.825Z,22.92
2018-07-03T15:57:02.524Z,22.91
2018-07-03T15:59:32.224Z,21.96
2018-07-03T16:02:02.062Z,21.25
2018-07-03T16:05:09.525Z,21.29
2018-07-03T16:07:50.885Z,21.58
2018-07-03T16:10:20.273Z,21.62
2018-07-03T16:12:50.314Z,22.24
2018-07-03T16:15:19.756Z,22.31
2018-07-03T16:17:49.933Z,22.43
2018-07-03T16:20:24.533Z,22.79
2018-07-03T16:22:54.334Z,22.53
2018-07-03T16:25:23.822Z,22.50
2018-07-03T16:27:53.328Z,22.48
2018-07-03T16:30:23.096Z,22.20
2018-07-03T16:32:53.768Z,22.30
2018-07-03T16:35:23.708Z,22.30
2018-07-03T16:37:53.657Z,22.49
2018-07-03T16:40:24.458Z,22.16
2018-07-03T16:42:54.586Z,22.60
2018-07-03T16:45:24.266Z,22.91
2018-07-03T16:47:58.148Z,22.68
2018-07-03T16:50:27.785Z,22.91
2018-07-03T16:52:57.631Z,22.55
2018-07-03T16:55:27.043Z,22.95
2018-07-03T16:57:56.657Z,23.21
2018-07-03T17:00:28.099Z,23.27
2018-07-03T17:02:58.173Z,24.01
2018-07-03T17:05:31.690Z,23.08
2018-07-03T17:08:01.434Z,23.18
2018-07-03T17:10:31.169Z,23.17
2018-07-03T17:13:01.203Z,23.00
2018-07-03T17:15:31.028Z,23.00
2018-07-03T17:18:00.428Z,22.97
2018-07-03T17:20:30.077Z,23.34
2018-07-03T17:22:59.845Z,23.82
2018-07-03T17:25:30.095Z,23.44
2018-07-03T17:28:00.042Z,23.70
2018-07-03T17:30:30.736Z,23.39
2018-07-03T17:33:00.408Z,24.08
2018-07-03T17:35:30.771Z,23.66
2018-07-03T17:38:02.737Z,23.53
2018-07-03T17:40:44.202Z,23.20
2018-07-03T17:43:33.544Z,22.89
2018-07-03T17:46:09.400Z,24.22
2018-07-03T17:48:38.996Z,24.03
2018-07-03T17:51:08.848Z,24.86
2018-07-03T17:53:38.190Z,24.74
2018-07-03T17:56:07.856Z,24.65
2018-07-03T17:58:37.386Z,25.12
2018-07-03T18:01:06.740Z,25.15
2018-07-03T18:03:36.048Z,25.35
2018-07-03T18:06:05.532Z,25.20
2018-07-03T18:08:34.919Z,25.63
2018-07-03T18:11:04.474Z,25.19
2018-07-03T18:13:37.783Z,25.54
2018-07-03T18:16:07.714Z,25.53
2018-07-03T18:18:37.699Z,25.52
2018-07-03T18:21:07.277Z,25.56
2018-07-03T18:23:37.399Z,25.40
2018-07-03T18:26:07.366Z,25.08
2018-07-03T18:28:37.827Z,25.14
2018-07-03T18:31:08.457Z,25.61
2018-07-03T18:33:38.021Z,25.48
2018-07-03T18:36:07.903Z,25.88
2018-07-03T18:38:37.475Z,25.49
2018-07-03T18:41:07.359Z,25.18
2018-07-03T18:43:37.183Z,27.00
2018-07-03T18:46:07.381Z,25.78
2018-07-03T18:48:37.220Z,25.85
2018-07-03T18:51:07.279Z,26.08
2018-07-03T18:53:37.639Z,26.21
2018-07-03T18:56:07.822Z,27.56
2018-07-03T18:58:37.312Z,28.32
2018-07-03T19:01:06.733Z,28.75
2018-07-03T19:03:39.737Z,29.09
2018-07-03T19:06:09.288Z,29.58
2018-07-03T19:08:39.275Z,30.15
2018-07-03T19:11:08.872Z,30.69
2018-07-03T19:13:39.305Z,31.46
2018-07-03T19:16:09.152Z,32.01
2018-07-03T19:18:39.078Z,32.77
2018-07-03T19:21:08.630Z,33.41
2018-07-03T19:23:37.963Z,33.38
2018-07-03T19:26:07.959Z,33.69
2018-07-03T19:28:37.772Z,33.70
2018-07-03T19:31:07.266Z,34.19
2018-07-03T19:33:37.003Z,34.64
2018-07-03T19:36:06.660Z,35.00
2018-07-03T19:38:36.228Z,35.52
2018-07-03T19:41:05.924Z,35.25
2018-07-03T19:43:38.400Z,35.73
2018-07-03T19:46:08.322Z,35.75
2018-07-03T19:48:38.026Z,36.10
2018-07-03T19:51:07.430Z,35.95
2018-07-03T19:53:36.840Z,36.06
2018-07-03T19:56:06.257Z,36.01
2018-07-03T19:58:36.599Z,36.08
2018-07-03T20:01:06.810Z,37.02
2018-07-03T20:03:36.906Z,37.23
2018-07-03T20:06:06.590Z,37.37
2018-07-03T20:08:36.422Z,37.30
2018-07-03T20:11:06.466Z,36.99
2018-07-03T20:13:36.204Z,37.57
2018-07-03T20:16:05.998Z,37.91
2018-07-03T20:18:35.566Z,38.05
2018-07-03T20:21:05.990Z,38.08
2018-07-03T20:23:36.254Z,38.42
2018-07-03T20:26:06.307Z,38.33
2018-07-03T20:28:35.927Z,38.72
2018-07-03T20:31:05.897Z,38.81
2018-07-03T20:33:38.784Z,39.02
2018-07-03T20:36:08.803Z,39.08
2018-07-03T20:38:42.057Z,39.34
2018-07-03T20:41:11.690Z,38.91
2018-07-03T20:43:42.592Z,39.08
2018-07-03T20:46:12.713Z,39.26
2018-07-03T20:48:42.222Z,39.52
2018-07-03T20:51:11.946Z,39.40
2018-07-03T20:53:41.608Z,39.46
2018-07-03T20:56:15.099Z,39.55
2018-07-03T20:58:44.757Z,39.83
2018-07-03T21:01:14.305Z,39.96
2018-07-03T21:03:44.057Z,40.50
2018-07-03T21:06:13.624Z,39.73
2018-07-03T21:08:44.036Z,39.88
2018-07-03T21:11:15.002Z,39.96
2018-07-03T21:13:44.939Z,40.33
2018-07-03T21:16:15.472Z,40.00
2018-07-03T21:18:44.767Z,40.73
2018-07-03T21:21:15.619Z,40.85
2018-07-03T21:23:44.989Z,40.87
2018-07-03T21:26:14.566Z,40.80
2018-07-03T21:28:44.407Z,40.54
2018-07-03T21:31:15.232Z,41.26
2018-07-03T21:33:45.391Z,41.31
2018-07-03T21:36:14.888Z,41.29
2018-07-03T21:38:44.377Z,41.55
2018-07-03T21:41:14.390Z,41.68
2018-07-03T21:43:45.031Z,41.67
2018-07-03T21:46:15.078Z,41.43
2018-07-03T21:48:44.686Z,40.92
2018-07-03T21:51:14.828Z,40.36
2018-07-03T21:53:44.941Z,40.07
2018-07-03T21:56:14.849Z,40.23
2018-07-03T21:58:44.420Z,40.18
2018-07-03T22:01:14.172Z,40.77
2018-07-03T22:03:43.868Z,41.07
2018-07-03T22:06:13.210Z,41.66
2018-07-03T22:08:43.006Z,42.55
2018-07-03T22:11:12.932Z,42.82
2018-07-03T22:13:42.547Z,43.30
2018-07-03T22:16:12.309Z,43.58
2018-07-03T22:18:42.469Z,44.33
2018-07-03T22:21:11.856Z,44.59
2018-07-03T22:23:41.768Z,45.24
2018-07-03T22:26:11.311Z,45.88
2018-07-03T22:28:41.265Z,46.31
2018-07-03T22:31:10.717Z,46.82
2018-07-03T22:33:40.470Z,47.00
2018-07-03T22:36:10.614Z,47.74
2018-07-03T22:38:40.434Z,47.54
2018-07-03T22:41:10.345Z,47.95
2018-07-03T22:43:40.246Z,48.25
2018-07-03T22:46:10.290Z,48.57
2018-07-03T22:48:40.018Z,49.19
2018-07-03T22:51:10.339Z,49.13
2018-07-03T22:53:40.430Z,48.66
2018-07-03T22:56:10.417Z,48.99
2018-07-03T22:58:40.344Z,49.45
2018-07-03T23:01:10.317Z,49.46
2018-07-03T23:03:39.819Z,49.72
2018-07-03T23:06:13.517Z,49.87
2018-07-03T23:08:43.090Z,50.14
2018-07-03T23:11:13.133Z,50.56
2018-07-03T23:13:42.737Z,50.64
2018-07-03T23:16:12.946Z,50.97
2018-07-03T23:18:42.972Z,51.00
2018-07-03T23:21:13.704Z,51.49
2018-07-03T23:23:44.720Z,51.24
2018-07-03T23:26:14.401Z,51.80
2018-07-03T23:28:44.803Z,51.95
2018-07-03T23:31:14.725Z,52.03
2018-07-03T23:33:44.302Z,52.60
2018-07-03T23:36:13.993Z,52.74
2018-07-03T23:38:43.703Z,52.83
2018-07-03T23:41:13.400Z,52.97
2018-07-03T23:43:43.152Z,52.82
2018-07-03T23:46:17.463Z,52.72
2018-07-03T23:48:57.904Z,53.11
2018-07-03T23:51:39.009Z,53.03
2018-07-03T23:54:19.712Z,53.03
2018-07-03T23:57:00.596Z,53.36
2018-07-03T23:59:41.355Z,53.46
